createdAt,value
2023-04-15T00:01:19.822Z,4.88
2023-04-15T00:03:48.078Z,4.78
2023-04-15T00:06:16.203Z,5.18
2023-04-15T00:08:43.871Z,3.90
2023-04-15T00:11:12.557Z,4.96
2023-04-15T00:13:40.220Z,4.98
2023-04-15T00:16:08.708Z,5.13
2023-04-15T00:18:36.553Z,5.15
2023-04-15T00:21:05.205Z,4.80
2023-04-15T00:23:32.888Z,3.63
2023-04-15T00:26:00.667Z,4.24
2023-04-15T00:28:28.500Z,3.72
2023-04-15T00:30:56.602Z,4.16
2023-04-15T00:33:24.583Z,3.47
2023-04-15T00:35:53.701Z,4.67
2023-04-15T00:38:21.364Z,4.17
2023-04-15T00:40:49.056Z,4.14
2023-04-15T00:43:17.791Z,4.51
2023-04-15T00:45:47.145Z,4.67
2023-04-15T00:48:15.557Z,4.48
2023-04-15T00:50:43.235Z,4.40
2023-04-15T00:53:11.189Z,4.70
2023-04-15T00:55:39.179Z,3.29
2023-04-15T00:58:07.164Z,4.05
2023-04-15T01:00:35.957Z,3.13
2023-04-15T01:03:03.859Z,2.98
2023-04-15T01:05:31.686Z,3.24
2023-04-15T01:07:59.584Z,2.52
2023-04-15T01:10:27.736Z,2.32
2023-04-15T01:12:55.696Z,2.45
2023-04-15T01:15:23.434Z,2.37
2023-04-15T01:17:51.232Z,2.38
2023-04-15T01:20:18.922Z,2.86
2023-04-15T01:22:46.688Z,3.25
2023-04-15T01:25:19.966Z,3.40
2023-04-15T01:27:47.683Z,3.63
2023-04-15T01:30:16.280Z,3.63
2023-04-15T01:32:44.354Z,3.71
2023-04-15T01:35:12.661Z,4.02
2023-04-15T01:37:40.472Z,3.50
2023-04-15T01:40:08.699Z,3.84
2023-04-15T01:42:37.485Z,3.18
2023-04-15T01:45:05.669Z,3.33
2023-04-15T01:47:33.715Z,3.68
2023-04-15T01:50:01.428Z,3.26
2023-04-15T01:52:29.826Z,3.01
2023-04-15T01:54:58.320Z,3.50
2023-04-15T01:57:26.429Z,3.61
2023-04-15T01:59:54.189Z,3.33
2023-04-15T02:02:22.993Z,3.05
2023-04-15T02:04:50.764Z,3.13
2023-04-15T02:07:18.552Z,3.07
2023-04-15T02:09:46.314Z,2.62
2023-04-15T02:12:14.548Z,2.41
2023-04-15T02:14:42.308Z,2.54
2023-04-15T02:17:10.467Z,2.61
2023-04-15T02:19:39.316Z,2.61
2023-04-15T02:22:09.308Z,2.80
2023-04-15T02:24:37.014Z,2.87
2023-04-15T02:27:04.732Z,3.02
2023-04-15T02:29:32.998Z,2.72
2023-04-15T02:32:02.011Z,2.94
2023-04-15T02:34:29.810Z,3.65
2023-04-15T02:36:58.990Z,3.41
2023-04-15T02:39:27.402Z,3.62
2023-04-15T02:41:55.391Z,3.62
2023-04-15T02:44:24.968Z,3.19
2023-04-15T02:46:56.946Z,3.01
2023-04-15T02:49:25.274Z,3.54
2023-04-15T02:51:53.069Z,2.76
2023-04-15T02:54:23.045Z,2.86
2023-04-15T02:56:50.839Z,2.94
2023-04-15T02:59:18.564Z,2.56
2023-04-15T03:01:46.378Z,2.72
2023-04-15T03:04:14.416Z,3.10
2023-04-15T03:06:42.753Z,3.91
2023-04-15T03:09:10.964Z,4.35
2023-04-15T03:11:41.571Z,4.53
2023-04-15T03:14:11.221Z,4.19
2023-04-15T03:16:42.853Z,4.56
2023-04-15T03:19:10.799Z,4.55
2023-04-15T03:21:41.396Z,4.56
2023-04-15T03:24:09.962Z,4.63
2023-04-15T03:26:37.933Z,4.39
2023-04-15T03:29:11.919Z,4.79
2023-04-15T03:31:41.229Z,4.59
2023-04-15T03:34:08.958Z,4.79
2023-04-15T03:36:37.389Z,4.50
2023-04-15T03:39:05.563Z,3.90
2023-04-15T03:41:33.560Z,3.75
2023-04-15T03:44:01.478Z,3.95
2023-04-15T03:46:29.205Z,4.39
2023-04-15T03:48:57.026Z,3.70
2023-04-15T03:51:24.784Z,3.99
2023-04-15T03:53:52.521Z,4.19
2023-04-15T03:56:20.192Z,4.41
2023-04-15T03:58:47.928Z,3.44
2023-04-15T04:01:16.501Z,3.95
2023-04-15T04:03:44.419Z,4.17
2023-04-15T04:06:12.802Z,3.27
2023-04-15T04:08:40.981Z,4.28
2023-04-15T04:11:08.628Z,3.44
2023-04-15T04:13:36.667Z,3.66
2023-04-15T04:16:04.961Z,3.74
2023-04-15T04:18:32.960Z,2.93
2023-04-15T04:21:00.664Z,3.96
2023-04-15T04:23:28.365Z,3.37
2023-04-15T04:25:56.399Z,4.13
2023-04-15T04:28:24.249Z,3.12
2023-04-15T04:30:52.014Z,4.07
2023-04-15T04:33:19.757Z,3.76
2023-04-15T04:35:47.458Z,4.41
2023-04-15T04:38:15.506Z,4.12
2023-04-15T04:40:43.159Z,4.44
2023-04-15T04:43:10.926Z,4.65
2023-04-15T04:45:38.665Z,4.99
2023-04-15T04:48:08.670Z,4.52
2023-04-15T04:50:36.772Z,4.90
2023-04-15T04:53:04.499Z,5.00
2023-04-15T04:55:32.430Z,5.09
2023-04-15T04:58:00.204Z,5.30
2023-04-15T05:00:28.129Z,5.21
2023-04-15T05:02:56.192Z,5.08
2023-04-15T05:05:23.947Z,5.54
2023-04-15T05:07:51.858Z,5.42
2023-04-15T05:10:19.611Z,5.58
2023-04-15T05:12:47.389Z,6.00
2023-04-15T05:15:15.323Z,5.79
2023-04-15T05:17:43.174Z,5.79
2023-04-15T05:20:11.957Z,6.37
2023-04-15T05:22:39.734Z,6.69
2023-04-15T05:25:07.895Z,6.79
2023-04-15T05:27:36.175Z,7.39
2023-04-15T05:30:04.075Z,7.46
2023-04-15T05:32:31.900Z,7.55
2023-04-15T05:34:59.648Z,7.53
2023-04-15T05:37:27.430Z,7.90
2023-04-15T05:39:55.097Z,8.12
2023-04-15T05:42:22.984Z,8.39
2023-04-15T05:44:51.097Z,8.52
2023-04-15T05:47:18.911Z,8.68
2023-04-15T05:49:46.573Z,8.76
2023-04-15T05:52:14.281Z,9.02
2023-04-15T05:54:41.965Z,9.14
2023-04-15T05:57:09.724Z,9.35
2023-04-15T05:59:38.877Z,8.96
2023-04-15T06:02:07.554Z,9.58
2023-04-15T06:04:35.334Z,9.99
2023-04-15T06:07:03.149Z,10.15
2023-04-15T06:09:30.925Z,10.41
2023-04-15T06:11:59.216Z,10.79
2023-04-15T06:14:26.909Z,10.96
2023-04-15T06:16:54.582Z,11.15
2023-04-15T06:19:22.317Z,11.71
2023-04-15T06:21:49.970Z,11.70
2023-04-15T06:24:17.708Z,12.10
2023-04-15T06:26:45.465Z,12.42
2023-04-15T06:29:13.255Z,12.35
2023-04-15T06:31:41.449Z,12.22
2023-04-15T06:34:09.247Z,12.20
2023-04-15T06:36:36.928Z,12.59
2023-04-15T06:39:04.845Z,13.17
2023-04-15T06:41:32.542Z,13.33
2023-04-15T06:44:00.291Z,12.53
2023-04-15T06:46:27.992Z,12.97
2023-04-15T06:48:55.815Z,13.46
2023-04-15T06:51:26.571Z,13.56
2023-04-15T06:53:54.542Z,13.97
2023-04-15T06:56:23.344Z,14.18
2023-04-15T06:58:51.268Z,13.89
2023-04-15T07:01:19.010Z,13.91
2023-04-15T07:03:46.938Z,14.13
2023-04-15T07:06:14.718Z,14.34
2023-04-15T07:08:42.971Z,14.24
2023-04-15T07:11:10.816Z,14.66
2023-04-15T07:13:38.544Z,14.62
2023-04-15T07:16:07.586Z,14.77
2023-04-15T07:18:35.415Z,14.74
2023-04-15T07:21:03.228Z,14.28
2023-04-15T07:23:31.427Z,14.10
2023-04-15T07:25:59.448Z,14.18
2023-04-15T07:28:27.394Z,14.79
2023-04-15T07:30:56.175Z,14.78
2023-04-15T07:33:23.974Z,15.23
2023-04-15T07:35:51.724Z,15.20
2023-04-15T07:38:19.461Z,15.53
2023-04-15T07:40:47.216Z,15.15
2023-04-15T07:43:15.124Z,15.08
2023-04-15T07:45:42.939Z,14.96
2023-04-15T07:48:10.962Z,15.26
2023-04-15T07:50:38.750Z,15.74
2023-04-15T07:53:07.584Z,15.67
2023-04-15T07:55:35.283Z,15.47
2023-04-15T07:58:02.967Z,15.39
2023-04-15T08:00:30.818Z,15.34
2023-04-15T08:02:59.740Z,16.02
2023-04-15T08:05:27.603Z,15.16
2023-04-15T08:07:55.315Z,15.73
2023-04-15T08:10:23.382Z,16.47
2023-04-15T08:12:54.270Z,15.44
2023-04-15T08:15:22.307Z,15.83
2023-04-15T08:17:50.046Z,15.79
2023-04-15T08:20:17.854Z,15.53
2023-04-15T08:22:46.466Z,16.59
2023-04-15T08:25:14.656Z,17.19
2023-04-15T08:27:42.655Z,16.37
2023-04-15T08:30:10.689Z,16.29
2023-04-15T08:32:38.495Z,15.90
2023-04-15T08:35:06.490Z,16.55
2023-04-15T08:37:34.233Z,16.70
2023-04-15T08:40:02.039Z,15.98
2023-04-15T08:42:37.582Z,15.63
2023-04-15T08:45:05.852Z,16.04
2023-04-15T08:47:33.815Z,16.15
2023-04-15T08:50:02.769Z,16.58
2023-04-15T08:52:31.585Z,15.99
2023-04-15T08:54:59.321Z,16.48
2023-04-15T08:57:28.078Z,16.61
2023-04-15T08:59:56.486Z,17.21
2023-04-15T09:02:25.170Z,17.56
2023-04-15T09:04:53.390Z,17.28
2023-04-15T09:07:21.299Z,16.55
2023-04-15T09:09:49.484Z,17.50
2023-04-15T09:12:17.258Z,17.23
2023-04-15T09:14:46.184Z,17.63
2023-04-15T09:17:14.015Z,18.06
2023-04-15T09:19:41.732Z,17.87
2023-04-15T09:22:09.885Z,17.47
2023-04-15T09:24:39.219Z,17.28
2023-04-15T09:27:07.096Z,17.21
2023-04-15T09:29:34.894Z,16.86
2023-04-15T09:32:12.885Z,17.61
2023-04-15T09:34:40.655Z,17.81
2023-04-15T09:37:10.944Z,17.27
2023-04-15T09:39:50.064Z,17.39
2023-04-15T09:42:24.092Z,18.41
2023-04-15T09:44:53.116Z,18.18
2023-04-15T09:47:31.512Z,17.56
2023-04-15T09:49:59.756Z,17.90
2023-04-15T09:52:28.780Z,16.85
2023-04-15T09:54:59.929Z,16.71
2023-04-15T09:57:35.254Z,16.64
2023-04-15T10:00:08.303Z,16.30
2023-04-15T10:02:38.242Z,16.55
2023-04-15T10:05:06.679Z,17.38
2023-04-15T10:07:35.216Z,16.69
2023-04-15T10:10:03.777Z,16.52
2023-04-15T10:12:31.514Z,16.61
2023-04-15T10:15:00.968Z,16.89
2023-04-15T10:17:35.270Z,17.56
2023-04-15T10:20:04.811Z,16.83
2023-04-15T10:22:33.146Z,16.89
2023-04-15T10:25:01.277Z,16.45
2023-04-15T10:27:29.353Z,17.16
2023-04-15T10:29:57.315Z,16.47
2023-04-15T10:32:25.093Z,16.72
2023-04-15T10:34:54.472Z,17.18
2023-04-15T10:37:23.303Z,16.88
2023-04-15T10:39:51.162Z,17.15
2023-04-15T10:42:19.600Z,17.59
2023-04-15T10:44:54.423Z,16.88
2023-04-15T10:47:22.359Z,16.97
2023-04-15T10:50:02.467Z,17.75
2023-04-15T10:52:30.403Z,17.15
2023-04-15T10:55:13.328Z,17.18
2023-04-15T10:57:41.705Z,17.37
2023-04-15T11:00:09.392Z,18.02
2023-04-15T11:02:57.008Z,17.77
2023-04-15T11:05:42.946Z,17.79
2023-04-15T11:08:11.038Z,18.50
2023-04-15T11:10:38.671Z,18.51
2023-04-15T11:13:16.663Z,18.10
2023-04-15T11:15:47.155Z,18.38
2023-04-15T11:18:14.817Z,18.29
2023-04-15T11:21:02.266Z,18.73
2023-04-15T11:23:39.779Z,18.36
2023-04-15T11:26:14.754Z,18.38
2023-04-15T11:28:43.849Z,18.69
2023-04-15T11:31:13.057Z,19.11
2023-04-15T11:33:59.323Z,19.44
2023-04-15T11:36:28.063Z,18.87
2023-04-15T11:38:56.056Z,19.40
2023-04-15T11:41:23.966Z,19.31
2023-04-15T11:43:52.117Z,19.49
2023-04-15T11:46:21.437Z,19.29
2023-04-15T11:48:49.215Z,19.10
2023-04-15T11:51:17.009Z,19.31
2023-04-15T11:53:46.335Z,19.34
2023-04-15T11:56:21.448Z,19.03
2023-04-15T11:58:51.863Z,18.55
2023-04-15T12:01:19.676Z,18.13
2023-04-15T12:03:48.063Z,19.11
2023-04-15T12:06:22.493Z,18.97
2023-04-15T12:08:56.036Z,19.07
2023-04-15T12:11:26.739Z,19.04
2023-04-15T12:13:56.223Z,19.39
2023-04-15T12:16:24.364Z,19.22
2023-04-15T12:18:52.970Z,19.12
2023-04-15T12:21:21.205Z,19.66
2023-04-15T12:23:52.921Z,20.09
2023-04-15T12:26:47.050Z,19.58
2023-04-15T12:29:16.494Z,19.86
2023-04-15T12:31:50.821Z,19.56
2023-04-15T12:34:20.118Z,19.32
2023-04-15T12:36:47.855Z,19.72
2023-04-15T12:39:15.648Z,19.95
2023-04-15T12:41:43.369Z,19.23
2023-04-15T12:44:11.083Z,19.52
2023-04-15T12:46:38.965Z,19.66
2023-04-15T12:49:07.032Z,19.24
2023-04-15T12:51:34.796Z,20.31
2023-04-15T12:54:02.875Z,19.58
2023-04-15T12:56:30.896Z,20.01
2023-04-15T12:58:58.655Z,20.24
2023-04-15T13:01:26.560Z,19.96
2023-04-15T13:03:54.529Z,20.69
2023-04-15T13:06:24.029Z,20.12
2023-04-15T13:08:58.176Z,19.81
2023-04-15T13:11:26.323Z,20.41
2023-04-15T13:13:54.027Z,20.60
2023-04-15T13:16:21.974Z,20.84
2023-04-15T13:18:49.801Z,20.35
2023-04-15T13:21:18.007Z,20.09
2023-04-15T13:23:45.784Z,20.95
2023-04-15T13:26:13.481Z,20.82
2023-04-15T13:28:41.421Z,20.89
2023-04-15T13:31:09.168Z,20.99
2023-04-15T13:33:36.985Z,20.25
2023-04-15T13:36:04.726Z,19.94
2023-04-15T13:38:32.558Z,19.99
2023-04-15T13:41:00.382Z,19.60
2023-04-15T13:43:28.333Z,20.02
2023-04-15T13:45:56.105Z,20.06
2023-04-15T13:48:24.005Z,20.23
2023-04-15T13:50:51.826Z,20.98
2023-04-15T13:53:19.620Z,20.84
2023-04-15T13:55:47.303Z,21.15
2023-04-15T13:58:15.056Z,20.69
2023-04-15T14:00:42.800Z,20.13
2023-04-15T14:03:10.738Z,20.69
2023-04-15T14:05:38.543Z,20.58
2023-04-15T14:08:06.362Z,20.90
2023-04-15T14:10:34.170Z,21.11
2023-04-15T14:13:01.940Z,21.50
2023-04-15T14:15:29.663Z,21.43
2023-04-15T14:17:57.672Z,21.71
2023-04-15T14:20:25.451Z,20.79
2023-04-15T14:22:53.208Z,20.30
2023-04-15T14:25:32.758Z,20.89
2023-04-15T14:28:02.337Z,21.22
2023-04-15T14:30:30.135Z,20.67
2023-04-15T14:32:58.028Z,19.92
2023-04-15T14:35:26.850Z,19.55
2023-04-15T14:37:54.910Z,20.40
2023-04-15T14:40:22.764Z,20.48
2023-04-15T14:42:50.636Z,20.27
2023-04-15T14:45:18.472Z,20.81
2023-04-15T14:47:46.923Z,20.72
2023-04-15T14:50:14.716Z,20.76
2023-04-15T14:52:42.481Z,20.77
2023-04-15T14:55:10.689Z,20.84
2023-04-15T14:57:38.985Z,20.68
2023-04-15T15:00:07.509Z,20.61
2023-04-15T15:02:39.755Z,20.84
2023-04-15T15:05:09.590Z,20.49
2023-04-15T15:07:38.122Z,20.57
2023-04-15T15:10:06.666Z,20.12
2023-04-15T15:12:34.446Z,20.63
2023-04-15T15:15:06.836Z,20.65
2023-04-15T15:17:37.323Z,20.14
2023-04-15T15:20:05.408Z,20.55
2023-04-15T15:22:33.089Z,20.46
2023-04-15T15:25:02.165Z,20.09
2023-04-15T15:27:29.937Z,20.17
2023-04-15T15:29:58.650Z,20.08
2023-04-15T15:32:26.597Z,19.58
2023-04-15T15:34:54.459Z,18.66
2023-04-15T15:37:22.177Z,18.22
2023-04-15T15:39:50.830Z,18.09
2023-04-15T15:42:22.318Z,18.07
2023-04-15T15:44:50.181Z,17.68
2023-04-15T15:47:17.956Z,18.64
2023-04-15T15:49:46.242Z,18.45
2023-04-15T15:52:13.949Z,18.25
2023-04-15T15:54:41.753Z,18.20
2023-04-15T15:57:10.323Z,17.58
2023-04-15T15:59:43.649Z,18.38
2023-04-15T16:02:11.827Z,17.81
2023-04-15T16:04:39.813Z,17.46
2023-04-15T16:07:07.675Z,17.79
2023-04-15T16:09:35.596Z,17.87
2023-04-15T16:12:04.029Z,17.57
2023-04-15T16:14:31.780Z,17.79
2023-04-15T16:16:59.554Z,17.97
2023-04-15T16:19:27.342Z,18.09
2023-04-15T16:21:55.561Z,18.34
2023-04-15T16:24:23.391Z,17.87
2023-04-15T16:26:51.294Z,17.57
2023-04-15T16:29:19.072Z,17.66
2023-04-15T16:31:47.533Z,17.61
2023-04-15T16:34:16.109Z,17.33
2023-04-15T16:36:44.016Z,17.45
2023-04-15T16:39:11.877Z,17.37
2023-04-15T16:41:39.645Z,17.37
2023-04-15T16:44:08.916Z,16.82
2023-04-15T16:46:37.368Z,16.97
2023-04-15T16:49:06.708Z,16.67
2023-04-15T16:51:34.653Z,16.10
2023-04-15T16:54:02.364Z,16.17
2023-04-15T16:56:30.059Z,15.84
2023-04-15T16:58:57.857Z,15.17
2023-04-15T17:01:25.676Z,15.46
2023-04-15T17:03:55.876Z,15.51
2023-04-15T17:06:24.314Z,15.72
2023-04-15T17:08:51.987Z,15.80
2023-04-15T17:11:19.697Z,15.73
2023-04-15T17:13:47.503Z,15.77
2023-04-15T17:16:15.376Z,15.56
2023-04-15T17:18:43.375Z,15.70
2023-04-15T17:21:11.068Z,16.14
2023-04-15T17:23:38.881Z,16.47
2023-04-15T17:26:06.582Z,15.97
2023-04-15T17:28:34.331Z,15.76
2023-04-15T17:31:02.199Z,16.39
2023-04-15T17:34:00.225Z,16.30
2023-04-15T17:36:17.668Z,16.15
2023-04-15T17:38:45.714Z,16.13
2023-04-15T17:41:13.466Z,16.07
2023-04-15T17:43:41.207Z,15.54
2023-04-15T17:46:12.055Z,14.88
2023-04-15T17:48:41.136Z,15.31
2023-04-15T17:51:08.853Z,14.99
2023-04-15T17:53:36.633Z,14.73
2023-04-15T17:56:04.471Z,15.04
2023-04-15T17:58:32.224Z,14.85
2023-04-15T18:00:59.900Z,14.75
2023-04-15T18:03:27.775Z,15.21
2023-04-15T18:05:55.941Z,14.95
2023-04-15T18:08:23.652Z,14.96
2023-04-15T18:10:51.353Z,14.85
2023-04-15T18:13:19.081Z,14.88
2023-04-15T18:15:48.663Z,15.06
2023-04-15T18:18:16.461Z,14.56
2023-04-15T18:20:44.243Z,14.69
2023-04-15T18:23:11.930Z,15.01
2023-04-15T18:25:39.670Z,15.21
2023-04-15T18:28:07.335Z,14.68
2023-04-15T18:30:35.075Z,14.58
2023-04-15T18:33:02.798Z,14.60
2023-04-15T18:35:30.687Z,14.24
2023-04-15T18:37:58.950Z,14.41
2023-04-15T18:40:26.881Z,14.53
2023-04-15T18:42:55.015Z,15.07
2023-04-15T18:45:22.723Z,15.35
2023-04-15T18:47:51.374Z,15.38
2023-04-15T18:50:19.316Z,15.40
2023-04-15T18:52:46.961Z,15.49
2023-04-15T18:55:16.129Z,14.34
2023-04-15T18:57:46.582Z,14.44
2023-04-15T19:00:17.143Z,14.66
2023-04-15T19:02:45.048Z,14.53
2023-04-15T19:05:12.912Z,14.14
2023-04-15T19:07:41.275Z,14.22
2023-04-15T19:10:09.307Z,14.50
2023-04-15T19:12:37.126Z,14.53
2023-04-15T19:15:05.208Z,14.69
2023-04-15T19:17:33.083Z,14.84
2023-04-15T19:20:00.953Z,14.37
2023-04-15T19:22:29.601Z,14.57
2023-04-15T19:24:57.387Z,13.67
2023-04-15T19:27:25.089Z,12.99
2023-04-15T19:29:53.066Z,13.99
2023-04-15T19:32:21.364Z,14.31
2023-04-15T19:34:49.202Z,14.30
2023-04-15T19:37:17.806Z,14.32
2023-04-15T19:39:46.114Z,14.69
2023-04-15T19:42:13.862Z,14.52
2023-04-15T19:44:42.910Z,14.38
2023-04-15T19:47:11.070Z,14.14
2023-04-15T19:49:38.834Z,13.79
2023-04-15T19:52:06.810Z,12.41
2023-04-15T19:54:35.006Z,12.14
2023-04-15T19:57:02.667Z,13.26
2023-04-15T19:59:30.437Z,13.66
2023-04-15T20:01:58.253Z,13.96
2023-04-15T20:04:26.182Z,14.07
2023-04-15T20:06:54.089Z,14.18
2023-04-15T20:09:21.797Z,13.98
2023-04-15T20:12:46.011Z,13.74
2023-04-15T20:14:37.854Z,13.52
2023-04-15T20:17:05.621Z,13.34
2023-04-15T20:19:34.649Z,13.17
2023-04-15T20:22:02.409Z,12.87
2023-04-15T20:24:30.252Z,12.47
2023-04-15T20:26:58.268Z,12.58
2023-04-15T20:29:26.465Z,12.24
2023-04-15T20:31:54.141Z,12.38
2023-04-15T20:34:21.843Z,12.39
2023-04-15T20:36:49.563Z,12.48
2023-04-15T20:39:17.535Z,12.98
2023-04-15T20:41:45.241Z,12.40
2023-04-15T20:44:12.995Z,11.60
2023-04-15T20:46:40.673Z,11.72
2023-04-15T20:49:08.412Z,11.97
2023-04-15T20:51:37.764Z,12.69
2023-04-15T20:54:06.207Z,12.84
2023-04-15T20:56:33.893Z,13.06
2023-04-15T20:59:01.719Z,13.28
2023-04-15T21:01:29.535Z,12.24
2023-04-15T21:03:57.263Z,12.68
2023-04-15T21:06:25.032Z,13.02
2023-04-15T21:08:52.782Z,12.51
2023-04-15T21:11:40.641Z,12.61
2023-04-15T21:14:08.674Z,12.59
2023-04-15T21:16:36.367Z,11.99
2023-04-15T21:19:04.353Z,12.43
2023-04-15T21:21:32.371Z,11.77
2023-04-15T21:24:00.049Z,11.73
2023-04-15T21:26:27.866Z,12.37
2023-04-15T21:28:55.674Z,12.31
2023-04-15T21:31:23.553Z,12.14
2023-04-15T21:33:51.345Z,12.35
2023-04-15T21:36:19.130Z,12.37
2023-04-15T21:38:46.784Z,12.48
2023-04-15T21:41:14.526Z,12.26
2023-04-15T21:43:42.200Z,12.23
2023-04-15T21:46:22.977Z,12.52
2023-04-15T21:48:53.121Z,12.83
2023-04-15T21:51:20.890Z,12.75
2023-04-15T21:53:48.596Z,12.86
2023-04-15T21:56:16.387Z,12.80
2023-04-15T21:58:44.155Z,13.00
2023-04-15T22:01:11.920Z,12.74
2023-04-15T22:03:39.811Z,12.95
2023-04-15T22:06:07.812Z,12.95
2023-04-15T22:08:44.581Z,13.02
2023-04-15T22:11:26.164Z,12.84
2023-04-15T22:13:54.310Z,12.83
2023-04-15T22:16:22.215Z,12.98
2023-04-15T22:18:49.989Z,12.22
2023-04-15T22:21:17.705Z,12.11
2023-04-15T22:23:48.974Z,11.94
2023-04-15T22:26:16.718Z,11.94
2023-04-15T22:28:45.347Z,12.22
2023-04-15T22:31:13.795Z,12.23
2023-04-15T22:33:41.542Z,11.44
2023-04-15T22:36:09.311Z,10.77
2023-04-15T22:38:37.081Z,11.36
2023-04-15T22:41:04.852Z,11.93
2023-04-15T22:43:32.523Z,11.82
2023-04-15T22:46:00.990Z,11.74
2023-04-15T22:48:28.742Z,11.62
2023-04-15T22:50:56.514Z,11.70
2023-04-15T22:53:24.192Z,11.88
2023-04-15T22:55:51.964Z,11.45
2023-04-15T22:58:19.701Z,11.88
2023-04-15T23:00:47.450Z,11.98
2023-04-15T23:03:15.308Z,12.22
2023-04-15T23:05:45.534Z,12.20
2023-04-15T23:08:13.242Z,11.75
2023-04-15T23:10:41.179Z,11.84
2023-04-15T23:13:08.830Z,11.91
2023-04-15T23:15:36.636Z,11.96
2023-04-15T23:18:04.387Z,12.02
2023-04-15T23:20:32.977Z,12.10
2023-04-15T23:23:00.701Z,12.23
2023-04-15T23:25:28.452Z,12.25
2023-04-15T23:27:56.103Z,12.07
2023-04-15T23:30:23.900Z,11.87
2023-04-15T23:32:51.645Z,11.28
2023-04-15T23:35:19.604Z,11.60
2023-04-15T23:37:47.281Z,11.75
2023-04-15T23:40:15.666Z,11.93
2023-04-15T23:42:43.551Z,11.94
2023-04-15T23:45:11.813Z,11.99
2023-04-15T23:47:39.888Z,11.40
2023-04-15T23:50:08.128Z,11.41
2023-04-15T23:52:36.328Z,11.62
2023-04-15T23:55:04.446Z,11.48
2023-04-15T23:57:32.100Z,11.67
